sensor_id;sensor_type;location;lat;lon;timestamp;pressure;altitude;pressure_sealevel;temperature;humidity
53246;BME280;39569;51.090;-1.786;2023-03-25T00:01:28;99407.63;;;14.08;53.30
53246;BME280;39569;51.090;-1.786;2023-03-25T00:03:58;99413.03;;;14.20;53.50
53246;BME280;39569;51.090;-1.786;2023-03-25T00:06:26;99419.16;;;13.49;54.35
53246;BME280;39569;51.090;-1.786;2023-03-25T00:08:53;99425.81;;;13.76;54.13
53246;BME280;39569;51.090;-1.786;2023-03-25T00:11:20;99418.84;;;13.57;53.92
53246;BME280;39569;51.090;-1.786;2023-03-25T00:13:47;99431.38;;;13.93;53.51
53246;BME280;39569;51.090;-1.786;2023-03-25T00:16:15;99421.94;;;14.02;53.26
53246;BME280;39569;51.090;-1.786;2023-03-25T00:18:43;99420.53;;;14.29;52.38
53246;BME280;39569;51.090;-1.786;2023-03-25T00:21:13;99422.66;;;14.09;53.00
53246;BME280;39569;51.090;-1.786;2023-03-25T00:23:40;99431.00;;;14.19;52.92
53246;BME280;39569;51.090;-1.786;2023-03-25T00:26:07;99444.63;;;13.40;53.96
53246;BME280;39569;51.090;-1.786;2023-03-25T00:28:36;99442.44;;;13.67;54.62
53246;BME280;39569;51.090;-1.786;2023-03-25T00:31:04;99450.81;;;14.48;52.19
53246;BME280;39569;51.090;-1.786;2023-03-25T00:33:32;99455.06;;;13.96;53.47
53246;BME280;39569;51.090;-1.786;2023-03-25T00:36:00;99447.53;;;14.46;52.45
53246;BME280;39569;51.090;-1.786;2023-03-25T00:38:32;99454.47;;;14.24;52.49
53246;BME280;39569;51.090;-1.786;2023-03-25T00:41:10;99440.75;;;14.02;52.92
53246;BME280;39569;51.090;-1.786;2023-03-25T00:43:38;99447.69;;;13.62;53.71
53246;BME280;39569;51.090;-1.786;2023-03-25T00:46:05;99445.03;;;13.92;52.65
53246;BME280;39569;51.090;-1.786;2023-03-25T00:48:32;99453.59;;;14.30;52.15
53246;BME280;39569;51.090;-1.786;2023-03-25T00:50:59;99446.22;;;13.77;52.43
53246;BME280;39569;51.090;-1.786;2023-03-25T00:53:33;99452.84;;;13.93;52.78
53246;BME280;39569;51.090;-1.786;2023-03-25T00:56:00;99455.44;;;13.34;54.17
53246;BME280;39569;51.090;-1.786;2023-03-25T00:58:27;99456.25;;;13.52;53.52
53246;BME280;39569;51.090;-1.786;2023-03-25T01:00:54;99463.25;;;13.71;52.83
53246;BME280;39569;51.090;-1.786;2023-03-25T01:03:22;99464.13;;;13.83;52.98
53246;BME280;39569;51.090;-1.786;2023-03-25T01:05:49;99460.44;;;13.96;52.99
53246;BME280;39569;51.090;-1.786;2023-03-25T01:08:19;99460.34;;;13.37;53.87
53246;BME280;39569;51.090;-1.786;2023-03-25T01:10:51;99461.84;;;13.51;53.76
53246;BME280;39569;51.090;-1.786;2023-03-25T01:13:19;99456.31;;;14.41;51.93
53246;BME280;39569;51.090;-1.786;2023-03-25T01:15:46;99462.00;;;13.56;53.37
53246;BME280;39569;51.090;-1.786;2023-03-25T01:18:13;99465.31;;;13.15;54.17
53246;BME280;39569;51.090;-1.786;2023-03-25T01:20:40;99453.22;;;13.31;54.41
53246;BME280;39569;51.090;-1.786;2023-03-25T01:23:07;99459.59;;;13.48;53.58
53246;BME280;39569;51.090;-1.786;2023-03-25T01:25:34;99456.97;;;13.77;53.48
53246;BME280;39569;51.090;-1.786;2023-03-25T01:28:03;99459.44;;;13.61;52.87
53246;BME280;39569;51.090;-1.786;2023-03-25T01:30:31;99463.16;;;13.78;52.64
53246;BME280;39569;51.090;-1.786;2023-03-25T01:32:57;99451.97;;;13.81;53.11
53246;BME280;39569;51.090;-1.786;2023-03-25T01:35:24;99458.88;;;13.89;52.35
53246;BME280;39569;51.090;-1.786;2023-03-25T01:37:51;99455.81;;;13.73;53.40
53246;BME280;39569;51.090;-1.786;2023-03-25T01:40:20;99460.78;;;13.52;53.65
53246;BME280;39569;51.090;-1.786;2023-03-25T01:42:47;99457.91;;;14.01;52.24
53246;BME280;39569;51.090;-1.786;2023-03-25T01:45:27;99471.84;;;13.44;53.48
53246;BME280;39569;51.090;-1.786;2023-03-25T01:48:01;99468.88;;;13.81;53.30
53246;BME280;39569;51.090;-1.786;2023-03-25T01:50:30;99473.44;;;13.99;52.15
53246;BME280;39569;51.090;-1.786;2023-03-25T01:53:00;99478.91;;;14.04;52.32
53246;BME280;39569;51.090;-1.786;2023-03-25T01:55:30;99475.22;;;14.17;52.65
53246;BME280;39569;51.090;-1.786;2023-03-25T01:58:01;99468.47;;;14.26;52.23
53246;BME280;39569;51.090;-1.786;2023-03-25T02:00:33;99473.97;;;13.90;52.74
53246;BME280;39569;51.090;-1.786;2023-03-25T02:03:01;99462.16;;;14.38;51.88
53246;BME280;39569;51.090;-1.786;2023-03-25T02:05:33;99469.22;;;14.86;51.07
53246;BME280;39569;51.090;-1.786;2023-03-25T02:08:04;99473.03;;;14.43;51.24
53246;BME280;39569;51.090;-1.786;2023-03-25T02:10:33;99465.19;;;14.53;51.79
53246;BME280;39569;51.090;-1.786;2023-03-25T02:13:01;99479.41;;;14.31;51.75
53246;BME280;39569;51.090;-1.786;2023-03-25T02:15:34;99468.91;;;14.11;52.52
53246;BME280;39569;51.090;-1.786;2023-03-25T02:18:18;99456.34;;;14.64;51.81
53246;BME280;39569;51.090;-1.786;2023-03-25T02:27:21;99470.75;;;14.11;52.30
53246;BME280;39569;51.090;-1.786;2023-03-25T02:30:12;99477.84;;;14.05;53.76
53246;BME280;39569;51.090;-1.786;2023-03-25T02:33:12;99491.09;;;13.89;54.37
53246;BME280;39569;51.090;-1.786;2023-03-25T02:35:50;99487.28;;;14.26;53.35
53246;BME280;39569;51.090;-1.786;2023-03-25T02:38:35;99489.72;;;14.16;53.71
53246;BME280;39569;51.090;-1.786;2023-03-25T02:41:11;99489.78;;;13.61;54.19
53246;BME280;39569;51.090;-1.786;2023-03-25T02:43:42;99482.28;;;14.00;53.82
53246;BME280;39569;51.090;-1.786;2023-03-25T02:46:15;99496.63;;;13.94;54.08
53246;BME280;39569;51.090;-1.786;2023-03-25T02:48:49;99493.69;;;14.43;52.96
53246;BME280;39569;51.090;-1.786;2023-03-25T02:51:21;99493.44;;;14.15;53.86
53246;BME280;39569;51.090;-1.786;2023-03-25T02:53:52;99501.03;;;13.70;55.82
53246;BME280;39569;51.090;-1.786;2023-03-25T02:56:22;99495.53;;;14.42;54.39
53246;BME280;39569;51.090;-1.786;2023-03-25T02:58:52;99502.91;;;14.17;54.21
53246;BME280;39569;51.090;-1.786;2023-03-25T03:01:21;99501.00;;;14.06;54.64
53246;BME280;39569;51.090;-1.786;2023-03-25T03:03:51;99494.38;;;14.20;54.49
53246;BME280;39569;51.090;-1.786;2023-03-25T03:06:18;99503.34;;;13.48;56.51
53246;BME280;39569;51.090;-1.786;2023-03-25T03:09:00;99492.16;;;13.88;56.60
53246;BME280;39569;51.090;-1.786;2023-03-25T03:11:35;99489.75;;;13.98;55.82
53246;BME280;39569;51.090;-1.786;2023-03-25T03:14:09;99498.84;;;13.97;55.80
53246;BME280;39569;51.090;-1.786;2023-03-25T03:16:46;99486.75;;;14.06;55.20
53246;BME280;39569;51.090;-1.786;2023-03-25T03:19:24;99500.94;;;14.24;55.31
53246;BME280;39569;51.090;-1.786;2023-03-25T03:21:58;99497.44;;;14.24;54.85
53246;BME280;39569;51.090;-1.786;2023-03-25T03:24:30;99499.31;;;14.23;55.01
53246;BME280;39569;51.090;-1.786;2023-03-25T03:27:04;99493.72;;;14.25;54.96
53246;BME280;39569;51.090;-1.786;2023-03-25T03:29:38;99500.53;;;14.09;55.34
53246;BME280;39569;51.090;-1.786;2023-03-25T03:32:12;99507.53;;;14.28;54.35
53246;BME280;39569;51.090;-1.786;2023-03-25T03:34:45;99514.34;;;14.31;54.37
53246;BME280;39569;51.090;-1.786;2023-03-25T03:37:17;99514.63;;;14.52;54.01
53246;BME280;39569;51.090;-1.786;2023-03-25T03:39:48;99507.53;;;14.28;54.86
53246;BME280;39569;51.090;-1.786;2023-03-25T03:42:19;99507.03;;;14.49;54.48
53246;BME280;39569;51.090;-1.786;2023-03-25T03:44:52;99518.91;;;14.24;54.68
53246;BME280;39569;51.090;-1.786;2023-03-25T03:47:24;99510.16;;;14.88;53.01
53246;BME280;39569;51.090;-1.786;2023-03-25T03:49:56;99525.72;;;14.97;53.04
53246;BME280;39569;51.090;-1.786;2023-03-25T03:52:29;99516.47;;;15.05;52.96
53246;BME280;39569;51.090;-1.786;2023-03-25T03:55:01;99519.38;;;14.80;52.99
53246;BME280;39569;51.090;-1.786;2023-03-25T03:57:32;99509.63;;;14.56;53.82
53246;BME280;39569;51.090;-1.786;2023-03-25T04:00:04;99521.03;;;15.04;52.55
53246;BME280;39569;51.090;-1.786;2023-03-25T04:02:37;99513.06;;;14.98;52.27
53246;BME280;39569;51.090;-1.786;2023-03-25T04:05:06;99519.16;;;14.22;53.78
53246;BME280;39569;51.090;-1.786;2023-03-25T04:07:39;99519.09;;;14.58;53.64
53246;BME280;39569;51.090;-1.786;2023-03-25T04:10:12;99541.44;;;14.41;53.84
53246;BME280;39569;51.090;-1.786;2023-03-25T04:12:42;99524.84;;;14.73;53.08
53246;BME280;39569;51.090;-1.786;2023-03-25T04:15:11;99528.81;;;14.71;53.16
53246;BME280;39569;51.090;-1.786;2023-03-25T04:17:38;99525.72;;;15.32;51.69
53246;BME280;39569;51.090;-1.786;2023-03-25T04:20:06;99529.75;;;14.17;53.62
53246;BME280;39569;51.090;-1.786;2023-03-25T04:22:36;99524.72;;;14.68;52.97
53246;BME280;39569;51.090;-1.786;2023-03-25T04:25:04;99531.19;;;14.02;53.51
53246;BME280;39569;51.090;-1.786;2023-03-25T04:27:32;99536.78;;;14.48;53.01
53246;BME280;39569;51.090;-1.786;2023-03-25T04:30:03;99539.75;;;14.58;52.90
53246;BME280;39569;51.090;-1.786;2023-03-25T04:32:29;99544.72;;;14.43;52.90
53246;BME280;39569;51.090;-1.786;2023-03-25T04:34:56;99544.97;;;14.83;51.98
53246;BME280;39569;51.090;-1.786;2023-03-25T04:37:24;99544.00;;;14.36;52.80
53246;BME280;39569;51.090;-1.786;2023-03-25T04:39:51;99551.88;;;14.90;52.05
53246;BME280;39569;51.090;-1.786;2023-03-25T04:42:20;99543.25;;;14.11;53.66
53246;BME280;39569;51.090;-1.786;2023-03-25T04:44:51;99553.56;;;14.14;53.64
53246;BME280;39569;51.090;-1.786;2023-03-25T04:47:20;99559.06;;;14.66;52.62
53246;BME280;39569;51.090;-1.786;2023-03-25T04:49:48;99567.06;;;13.89;53.65
53246;BME280;39569;51.090;-1.786;2023-03-25T04:52:15;99567.28;;;14.83;51.86
53246;BME280;39569;51.090;-1.786;2023-03-25T04:54:42;99560.19;;;14.59;51.99
53246;BME280;39569;51.090;-1.786;2023-03-25T04:57:09;99560.78;;;14.49;52.23
53246;BME280;39569;51.090;-1.786;2023-03-25T04:59:36;99555.81;;;14.76;51.54
53246;BME280;39569;51.090;-1.786;2023-03-25T05:02:05;99557.22;;;14.78;52.10
53246;BME280;39569;51.090;-1.786;2023-03-25T05:04:32;99571.00;;;14.23;53.33
53246;BME280;39569;51.090;-1.786;2023-03-25T05:06:59;99562.13;;;14.40;52.71
53246;BME280;39569;51.090;-1.786;2023-03-25T05:09:25;99572.72;;;14.65;52.27
53246;BME280;39569;51.090;-1.786;2023-03-25T05:11:53;99578.69;;;14.67;52.11
53246;BME280;39569;51.090;-1.786;2023-03-25T05:14:21;99583.78;;;14.57;52.32
53246;BME280;39569;51.090;-1.786;2023-03-25T05:16:48;99588.75;;;14.24;53.15
53246;BME280;39569;51.090;-1.786;2023-03-25T05:19:17;99586.22;;;14.11;53.47
53246;BME280;39569;51.090;-1.786;2023-03-25T05:21:45;99584.91;;;14.20;52.68
53246;BME280;39569;51.090;-1.786;2023-03-25T05:24:12;99593.91;;;14.43;51.94
53246;BME280;39569;51.090;-1.786;2023-03-25T05:26:40;99591.41;;;14.60;52.50
53246;BME280;39569;51.090;-1.786;2023-03-25T05:29:09;99605.28;;;14.57;51.89
53246;BME280;39569;51.090;-1.786;2023-03-25T05:31:38;99616.91;;;14.39;52.51
53246;BME280;39569;51.090;-1.786;2023-03-25T05:34:05;99609.13;;;14.79;51.52
53246;BME280;39569;51.090;-1.786;2023-03-25T05:36:34;99602.22;;;14.42;52.46
53246;BME280;39569;51.090;-1.786;2023-03-25T05:39:01;99614.34;;;14.26;52.42
53246;BME280;39569;51.090;-1.786;2023-03-25T05:41:29;99607.56;;;13.88;53.18
53246;BME280;39569;51.090;-1.786;2023-03-25T05:43:58;99610.16;;;14.48;52.40
53246;BME280;39569;51.090;-1.786;2023-03-25T05:46:26;99612.44;;;14.93;51.02
53246;BME280;39569;51.090;-1.786;2023-03-25T05:48:54;99617.41;;;14.12;52.96
53246;BME280;39569;51.090;-1.786;2023-03-25T05:51:22;99617.19;;;14.79;51.28
53246;BME280;39569;51.090;-1.786;2023-03-25T05:53:51;99628.13;;;14.66;51.73
53246;BME280;39569;51.090;-1.786;2023-03-25T05:56:19;99615.47;;;14.37;52.45
53246;BME280;39569;51.090;-1.786;2023-03-25T05:58:48;99624.97;;;14.69;51.79
53246;BME280;39569;51.090;-1.786;2023-03-25T06:01:15;99626.09;;;14.32;52.55
53246;BME280;39569;51.090;-1.786;2023-03-25T06:03:43;99627.19;;;14.24;52.56
53246;BME280;39569;51.090;-1.786;2023-03-25T06:06:11;99616.25;;;14.73;51.15
53246;BME280;39569;51.090;-1.786;2023-03-25T06:08:39;99633.06;;;13.97;52.56
53246;BME280;39569;51.090;-1.786;2023-03-25T06:11:07;99640.84;;;14.41;52.41
53246;BME280;39569;51.090;-1.786;2023-03-25T06:13:39;99637.63;;;14.14;52.69
53246;BME280;39569;51.090;-1.786;2023-03-25T06:16:06;99638.47;;;14.33;52.52
53246;BME280;39569;51.090;-1.786;2023-03-25T06:18:34;99637.88;;;14.49;51.78
53246;BME280;39569;51.090;-1.786;2023-03-25T06:21:02;99647.00;;;14.59;51.95
53246;BME280;39569;51.090;-1.786;2023-03-25T06:23:30;99651.94;;;14.92;50.96
53246;BME280;39569;51.090;-1.786;2023-03-25T06:26:00;99651.09;;;14.80;50.84
53246;BME280;39569;51.090;-1.786;2023-03-25T06:28:30;99651.38;;;14.90;51.44
53246;BME280;39569;51.090;-1.786;2023-03-25T06:30:58;99653.03;;;15.03;50.94
53246;BME280;39569;51.090;-1.786;2023-03-25T06:33:27;99666.56;;;15.37;49.75
53246;BME280;39569;51.090;-1.786;2023-03-25T06:35:54;99679.09;;;15.02;50.82
53246;BME280;39569;51.090;-1.786;2023-03-25T06:38:21;99679.47;;;15.06;51.00
53246;BME280;39569;51.090;-1.786;2023-03-25T06:40:47;99672.03;;;14.90;50.78
53246;BME280;39569;51.090;-1.786;2023-03-25T06:43:14;99688.53;;;14.63;51.69
53246;BME280;39569;51.090;-1.786;2023-03-25T06:45:43;99677.28;;;15.14;50.91
53246;BME280;39569;51.090;-1.786;2023-03-25T06:48:10;99684.09;;;14.69;51.89
53246;BME280;39569;51.090;-1.786;2023-03-25T06:50:36;99685.75;;;15.00;51.06
53246;BME280;39569;51.090;-1.786;2023-03-25T06:53:03;99689.69;;;14.86;51.88
53246;BME280;39569;51.090;-1.786;2023-03-25T06:55:30;99689.00;;;14.90;51.95
53246;BME280;39569;51.090;-1.786;2023-03-25T06:57:57;99689.72;;;14.97;51.83
53246;BME280;39569;51.090;-1.786;2023-03-25T07:00:23;99689.00;;;15.84;49.77
53246;BME280;39569;51.090;-1.786;2023-03-25T07:02:54;99697.16;;;15.43;50.78
53246;BME280;39569;51.090;-1.786;2023-03-25T07:05:22;99704.66;;;15.52;50.44
53246;BME280;39569;51.090;-1.786;2023-03-25T07:07:49;99703.13;;;15.45;50.79
53246;BME280;39569;51.090;-1.786;2023-03-25T07:10:16;99698.00;;;15.66;50.27
53246;BME280;39569;51.090;-1.786;2023-03-25T07:12:43;99706.66;;;15.68;50.70
53246;BME280;39569;51.090;-1.786;2023-03-25T07:15:09;99713.50;;;15.83;50.66
53246;BME280;39569;51.090;-1.786;2023-03-25T07:17:36;99717.09;;;15.65;50.54
53246;BME280;39569;51.090;-1.786;2023-03-25T07:20:06;99714.66;;;16.10;49.16
53246;BME280;39569;51.090;-1.786;2023-03-25T07:22:33;99728.09;;;15.75;50.40
53246;BME280;39569;51.090;-1.786;2023-03-25T07:24:59;99724.72;;;16.26;49.69
53246;BME280;39569;51.090;-1.786;2023-03-25T07:27:26;99724.44;;;15.58;50.77
53246;BME280;39569;51.090;-1.786;2023-03-25T07:29:53;99729.28;;;15.91;50.50
53246;BME280;39569;51.090;-1.786;2023-03-25T07:32:20;99736.78;;;16.00;50.42
53246;BME280;39569;51.090;-1.786;2023-03-25T07:34:46;99736.91;;;16.05;49.85
53246;BME280;39569;51.090;-1.786;2023-03-25T07:37:15;99740.53;;;16.22;49.31
53246;BME280;39569;51.090;-1.786;2023-03-25T07:39:41;99744.91;;;15.47;51.49
53246;BME280;39569;51.090;-1.786;2023-03-25T07:42:08;99747.25;;;15.26;51.60
53246;BME280;39569;51.090;-1.786;2023-03-25T07:44:35;99757.09;;;15.32;52.42
53246;BME280;39569;51.090;-1.786;2023-03-25T07:47:02;99756.34;;;16.07;50.85
53246;BME280;39569;51.090;-1.786;2023-03-25T07:49:28;99755.28;;;16.31;49.81
53246;BME280;39569;51.090;-1.786;2023-03-25T07:51:55;99754.94;;;16.28;50.61
53246;BME280;39569;51.090;-1.786;2023-03-25T07:54:23;99752.19;;;15.70;51.23
53246;BME280;39569;51.090;-1.786;2023-03-25T07:56:50;99763.25;;;16.49;50.42
53246;BME280;39569;51.090;-1.786;2023-03-25T07:59:18;99776.50;;;16.05;50.64
53246;BME280;39569;51.090;-1.786;2023-03-25T08:01:45;99770.41;;;16.09;51.33
53246;BME280;39569;51.090;-1.786;2023-03-25T08:04:12;99771.56;;;16.13;51.11
53246;BME280;39569;51.090;-1.786;2023-03-25T08:06:39;99793.03;;;16.43;50.14
53246;BME280;39569;51.090;-1.786;2023-03-25T08:09:06;99789.66;;;16.47;50.69
53246;BME280;39569;51.090;-1.786;2023-03-25T08:11:34;99799.59;;;16.35;50.82
53246;BME280;39569;51.090;-1.786;2023-03-25T08:14:01;99802.88;;;16.72;50.42
53246;BME280;39569;51.090;-1.786;2023-03-25T08:16:27;99816.41;;;17.12;48.93
53246;BME280;39569;51.090;-1.786;2023-03-25T08:18:54;99809.59;;;17.77;47.54
53246;BME280;39569;51.090;-1.786;2023-03-25T08:21:21;99814.34;;;17.30;48.82
53246;BME280;39569;51.090;-1.786;2023-03-25T08:23:50;99815.03;;;17.49;47.90
53246;BME280;39569;51.090;-1.786;2023-03-25T08:26:19;99814.72;;;17.62;48.34
53246;BME280;39569;51.090;-1.786;2023-03-25T08:28:47;99805.78;;;18.06;46.68
53246;BME280;39569;51.090;-1.786;2023-03-25T08:31:13;99825.41;;;17.85;46.90
53246;BME280;39569;51.090;-1.786;2023-03-25T08:33:40;99833.09;;;17.37;47.92
53246;BME280;39569;51.090;-1.786;2023-03-25T08:36:08;99834.03;;;16.91;48.83
53246;BME280;39569;51.090;-1.786;2023-03-25T08:38:38;99833.63;;;17.22;47.59
53246;BME280;39569;51.090;-1.786;2023-03-25T08:41:06;99843.81;;;17.32;47.60
53246;BME280;39569;51.090;-1.786;2023-03-25T08:43:33;99841.59;;;17.85;46.93
53246;BME280;39569;51.090;-1.786;2023-03-25T08:46:01;99843.00;;;17.88;47.67
53246;BME280;39569;51.090;-1.786;2023-03-25T08:48:28;99842.22;;;17.76;46.99
53246;BME280;39569;51.090;-1.786;2023-03-25T08:50:55;99849.88;;;17.39;47.80
53246;BME280;39569;51.090;-1.786;2023-03-25T08:53:22;99860.75;;;17.44;47.69
53246;BME280;39569;51.090;-1.786;2023-03-25T08:55:50;99866.56;;;17.92;47.02
53246;BME280;39569;51.090;-1.786;2023-03-25T08:58:17;99866.38;;;17.65;47.08
53246;BME280;39569;51.090;-1.786;2023-03-25T09:00:44;99869.25;;;17.76;47.30
53246;BME280;39569;51.090;-1.786;2023-03-25T09:03:12;99867.34;;;18.04;46.60
53246;BME280;39569;51.090;-1.786;2023-03-25T09:05:40;99874.41;;;18.22;45.99
53246;BME280;39569;51.090;-1.786;2023-03-25T09:08:07;99882.00;;;17.12;47.67
53246;BME280;39569;51.090;-1.786;2023-03-25T09:10:34;99880.50;;;16.82;48.12
53246;BME280;39569;51.090;-1.786;2023-03-25T09:13:00;99885.38;;;18.15;46.38
53246;BME280;39569;51.090;-1.786;2023-03-25T09:15:27;99883.50;;;18.16;45.30
53246;BME280;39569;51.090;-1.786;2023-03-25T09:17:55;99887.56;;;17.45;46.91
53246;BME280;39569;51.090;-1.786;2023-03-25T09:20:23;99904.13;;;18.22;45.40
53246;BME280;39569;51.090;-1.786;2023-03-25T09:22:50;99899.22;;;18.19;46.06
53246;BME280;39569;51.090;-1.786;2023-03-25T09:25:17;99896.91;;;18.55;45.19
53246;BME280;39569;51.090;-1.786;2023-03-25T09:27:44;99895.00;;;17.66;46.28
53246;BME280;39569;51.090;-1.786;2023-03-25T09:30:12;99896.31;;;18.53;45.12
53246;BME280;39569;51.090;-1.786;2023-03-25T09:32:39;99904.28;;;18.77;44.34
53246;BME280;39569;51.090;-1.786;2023-03-25T09:35:09;99906.06;;;18.88;44.45
53246;BME280;39569;51.090;-1.786;2023-03-25T09:37:38;99908.28;;;17.96;44.93
53246;BME280;39569;51.090;-1.786;2023-03-25T09:40:06;99911.31;;;18.78;43.95
53246;BME280;39569;51.090;-1.786;2023-03-25T09:42:55;99900.28;;;21.09;40.49
53246;BME280;39569;51.090;-1.786;2023-03-25T09:45:31;99903.78;;;19.83;40.88
53246;BME280;39569;51.090;-1.786;2023-03-25T09:48:03;99919.19;;;18.62;43.00
53246;BME280;39569;51.090;-1.786;2023-03-25T09:50:33;99918.44;;;19.22;42.54
53246;BME280;39569;51.090;-1.786;2023-03-25T09:53:04;99927.28;;;18.79;43.22
53246;BME280;39569;51.090;-1.786;2023-03-25T09:55:35;99931.19;;;19.21;43.54
53246;BME280;39569;51.090;-1.786;2023-03-25T09:58:23;99936.06;;;19.41;42.54
53246;BME280;39569;51.090;-1.786;2023-03-25T10:00:55;99947.03;;;19.73;42.29
53246;BME280;39569;51.090;-1.786;2023-03-25T10:03:26;99949.06;;;19.82;42.50
53246;BME280;39569;51.090;-1.786;2023-03-25T10:06:10;99955.03;;;19.63;41.93
53246;BME280;39569;51.090;-1.786;2023-03-25T10:08:51;99969.56;;;19.73;42.27
53246;BME280;39569;51.090;-1.786;2023-03-25T10:11:26;99968.81;;;18.40;44.03
53246;BME280;39569;51.090;-1.786;2023-03-25T10:14:01;99978.53;;;18.52;44.34
53246;BME280;39569;51.090;-1.786;2023-03-25T10:16:38;99979.44;;;18.41;44.60
53246;BME280;39569;51.090;-1.786;2023-03-25T10:19:23;99983.38;;;18.84;44.21
53246;BME280;39569;51.090;-1.786;2023-03-25T10:21:59;99991.84;;;20.50;40.83
53246;BME280;39569;51.090;-1.786;2023-03-25T10:24:33;99983.47;;;19.82;41.46
53246;BME280;39569;51.090;-1.786;2023-03-25T10:27:03;100004.25;;;19.54;42.31
53246;BME280;39569;51.090;-1.786;2023-03-25T10:29:35;100000.69;;;18.83;43.48
53246;BME280;39569;51.090;-1.786;2023-03-25T10:32:06;99996.00;;;18.78;43.76
53246;BME280;39569;51.090;-1.786;2023-03-25T10:34:38;99987.63;;;19.13;42.91
53246;BME280;39569;51.090;-1.786;2023-03-25T10:37:09;100004.31;;;20.78;39.81
53246;BME280;39569;51.090;-1.786;2023-03-25T10:39:41;100007.78;;;20.41;40.04
53246;BME280;39569;51.090;-1.786;2023-03-25T10:42:18;100017.00;;;19.97;41.83
53246;BME280;39569;51.090;-1.786;2023-03-25T10:44:46;100003.94;;;22.51;36.92
53246;BME280;39569;51.090;-1.786;2023-03-25T10:47:16;99995.50;;;24.17;33.40
53246;BME280;39569;51.090;-1.786;2023-03-25T10:49:45;100006.94;;;23.50;34.07
53246;BME280;39569;51.090;-1.786;2023-03-25T10:52:13;99997.91;;;26.85;29.97
53246;BME280;39569;51.090;-1.786;2023-03-25T10:54:44;100015.13;;;25.87;30.05
53246;BME280;39569;51.090;-1.786;2023-03-25T10:57:18;99997.28;;;27.06;28.68
53246;BME280;39569;51.090;-1.786;2023-03-25T10:59:56;100010.59;;;24.92;32.57
53246;BME280;39569;51.090;-1.786;2023-03-25T11:02:27;100008.13;;;24.08;33.33
53246;BME280;39569;51.090;-1.786;2023-03-25T11:04:56;100016.22;;;23.04;34.51
53246;BME280;39569;51.090;-1.786;2023-03-25T11:07:27;100021.16;;;21.53;38.02
53246;BME280;39569;51.090;-1.786;2023-03-25T11:10:13;100036.47;;;21.22;40.57
53246;BME280;39569;51.090;-1.786;2023-03-25T11:12:41;100031.50;;;20.29;41.41
53246;BME280;39569;51.090;-1.786;2023-03-25T11:15:13;100036.63;;;21.47;39.19
53246;BME280;39569;51.090;-1.786;2023-03-25T11:17:40;100021.59;;;22.43;36.92
53246;BME280;39569;51.090;-1.786;2023-03-25T11:20:16;100024.59;;;23.73;33.74
53246;BME280;39569;51.090;-1.786;2023-03-25T11:22:46;100014.25;;;27.54;28.66
53246;BME280;39569;51.090;-1.786;2023-03-25T11:25:19;100009.72;;;27.77;27.83
53246;BME280;39569;51.090;-1.786;2023-03-25T11:27:52;100005.53;;;27.66;28.71
53246;BME280;39569;51.090;-1.786;2023-03-25T11:30:22;100010.47;;;28.45;27.80
53246;BME280;39569;51.090;-1.786;2023-03-25T11:32:56;100001.97;;;27.79;27.88
53246;BME280;39569;51.090;-1.786;2023-03-25T11:35:25;100011.66;;;26.24;30.10
53246;BME280;39569;51.090;-1.786;2023-03-25T11:37:55;100017.03;;;23.34;33.01
53246;BME280;39569;51.090;-1.786;2023-03-25T11:40:24;100007.06;;;25.96;30.11
53246;BME280;39569;51.090;-1.786;2023-03-25T11:42:53;100021.78;;;25.24;30.74
53246;BME280;39569;51.090;-1.786;2023-03-25T11:45:22;100018.59;;;24.83;31.01
53246;BME280;39569;51.090;-1.786;2023-03-25T11:47:50;100015.69;;;27.52;28.74
53246;BME280;39569;51.090;-1.786;2023-03-25T11:50:20;100009.94;;;26.70;29.91
53246;BME280;39569;51.090;-1.786;2023-03-25T11:52:48;100015.56;;;24.90;31.33
53246;BME280;39569;51.090;-1.786;2023-03-25T11:55:21;100019.16;;;21.75;35.58
53246;BME280;39569;51.090;-1.786;2023-03-25T11:57:51;100015.47;;;21.13;36.90
53246;BME280;39569;51.090;-1.786;2023-03-25T12:00:31;100017.44;;;20.91;38.85
53246;BME280;39569;51.090;-1.786;2023-03-25T12:03:02;100023.97;;;21.68;37.46
53246;BME280;39569;51.090;-1.786;2023-03-25T12:05:30;100039.03;;;21.02;38.01
53246;BME280;39569;51.090;-1.786;2023-03-25T12:08:03;100024.09;;;21.88;36.52
53246;BME280;39569;51.090;-1.786;2023-03-25T12:10:42;100020.88;;;25.33;32.65
53246;BME280;39569;51.090;-1.786;2023-03-25T12:13:20;100026.47;;;24.90;32.60
53246;BME280;39569;51.090;-1.786;2023-03-25T12:15:55;100023.94;;;24.60;32.83
53246;BME280;39569;51.090;-1.786;2023-03-25T12:18:48;100031.44;;;25.74;32.50
53246;BME280;39569;51.090;-1.786;2023-03-25T12:21:28;100033.72;;;24.66;33.15
53246;BME280;39569;51.090;-1.786;2023-03-25T12:24:10;100018.28;;;26.23;30.26
53246;BME280;39569;51.090;-1.786;2023-03-25T12:26:47;100036.03;;;23.70;34.39
53246;BME280;39569;51.090;-1.786;2023-03-25T12:29:29;100035.00;;;22.90;35.96
53246;BME280;39569;51.090;-1.786;2023-03-25T12:32:14;100052.97;;;20.84;38.71
53246;BME280;39569;51.090;-1.786;2023-03-25T12:34:53;100050.50;;;21.09;40.04
53246;BME280;39569;51.090;-1.786;2023-03-25T12:37:29;100060.31;;;20.89;42.08
53246;BME280;39569;51.090;-1.786;2023-03-25T12:40:13;100045.91;;;20.57;42.29
53246;BME280;39569;51.090;-1.786;2023-03-25T12:42:48;100055.19;;;24.87;37.25
53246;BME280;39569;51.090;-1.786;2023-03-25T12:45:25;100053.59;;;24.27;37.36
53246;BME280;39569;51.090;-1.786;2023-03-25T12:48:00;100056.78;;;21.51;38.80
53246;BME280;39569;51.090;-1.786;2023-03-25T12:50:40;100063.53;;;20.81;41.57
53246;BME280;39569;51.090;-1.786;2023-03-25T12:53:32;100066.88;;;20.18;43.55
53246;BME280;39569;51.090;-1.786;2023-03-25T12:56:11;100056.22;;;20.33;43.93
53246;BME280;39569;51.090;-1.786;2023-03-25T12:59:02;100063.91;;;20.41;44.26
53246;BME280;39569;51.090;-1.786;2023-03-25T13:01:40;100063.03;;;20.35;42.99
53246;BME280;39569;51.090;-1.786;2023-03-25T13:07:02;100067.28;;;19.67;44.87
53246;BME280;39569;51.090;-1.786;2023-03-25T13:09:33;100065.56;;;19.60;45.40
53246;BME280;39569;51.090;-1.786;2023-03-25T13:12:04;100057.63;;;20.35;43.69
53246;BME280;39569;51.090;-1.786;2023-03-25T13:14:37;100062.03;;;20.68;43.61